Favola — IBFH — position and weather

sailwx.info

Track history (hours):
 
Tides and Currents Weather Stations Pressure Air Temp Water Temp Dewpoint Dewpoint Depression Visibility Wind Speed Wind Dir Waves Ship Positions

Favola

Last reported at 2014-Jul-24 21:08 UTC. Time now 2014-Jul-24 21:43 UTC.
Position N 39°48' W 009°43'.

Length 180 m; draft 9.4 m.

Type: Ship (hazmat cat A). MMSI: 247069800.

Date/timePositionNaut miles runAvg speedWind from/ knotsBaromVisibWave heightAir tempDewpointWater temp
2014-Jul-24 21:08N 39°48' W 009°43'  
2014-Jul-20 10:24N 50°18' W 001°14'1214.6
2014-Jul-20 09:33N 50°21' W 000°55'1514.9
2014-Jul-20 08:33N 50°25' W 000°33'1313.5
2014-Jul-20 07:33N 50°29' W 000°12'1212.4
2014-Jul-20 06:33N 50°32' E 000°07'1211.8
2014-Jul-20 05:33N 50°35' E 000°25'1111.0
2014-Jul-20 04:33N 50°40' E 000°40'1110.8
2014-Jul-20 03:33N 50°46' E 000°54'1111.1
2014-Jul-20 02:33N 50°53' E 001°08'1212.3
2014-Jul-20 01:34N 51°02' E 001°22'1413.7
2014-Jul-20 00:33N 51°10' E 001°40'1313.0
2014-Jul-19 23:34N 51°20' E 001°53'1212.3
2014-Jul-19 22:33N 51°30' E 002°04'1111.4
2014-Jul-19 21:34N 51°38' E 002°16'1010.0
2014-Jul-19 20:33N 51°46' E 002°26'1010.3
2014-Jul-19 19:33N 51°55' E 002°34'1010.3
2014-Jul-19 18:33N 52°05' E 002°38'1110.9
2014-Jul-19 17:33N 52°16' E 002°43'2512.1
2014-Jul-19 15:31N 52°38' E 003°00'1313.1
2014-Jul-19 14:33N 52°49' E 003°10'1313.2
2014-Jul-19 13:33N 53°02' E 003°18'1312.9
2014-Jul-19 12:31N 53°14' E 003°25'1212.3
2014-Jul-19 11:33N 53°25' E 003°31'1211.9
2014-Jul-19 10:32N 53°37' E 003°37'1111.2
2014-Jul-19 09:33N 53°46' E 003°47'1211.8
2014-Jul-19 08:33N 53°53' E 004°03'1212.0
2014-Jul-19 07:33N 54°01' E 004°19'1312.7
2014-Jul-19 06:33N 54°04' E 004°40'1312.9
2014-Jul-19 05:33N 54°05' E 005°02'1312.7
2014-Jul-19 04:33N 54°07' E 005°23'1212.3
2014-Jul-19 03:34N 54°09' E 005°44'1211.7
2014-Jul-19 02:33N 54°10' E 006°04'1111.2
2014-Jul-19 01:33N 54°12' E 006°23'1111.1
2014-Jul-19 00:33N 54°12' E 006°42'1111.3
2014-Jul-18 23:33N 54°12' E 007°01'1212.0
2014-Jul-18 22:33N 54°12' E 007°22'1212.2
2014-Jul-18 21:33N 54°09' E 007°42'1313.2
2014-Jul-18 20:33N 54°03' E 008°02'3 3.3
2014-Jul-18 19:31N 54°02' E 008°08'0 0.0
2014-Jul-18 18:31N 54°02' E 008°08'0 0.0
2014-Jul-18 17:31N 54°02' E 008°08'0 0.1
2014-Jul-18 16:31N 54°02' E 008°08'0 0.1
2014-Jul-18 15:31N 54°02' E 008°08'0 0.0
2014-Jul-18 14:31N 54°02' E 008°08'0 0.0
2014-Jul-18 13:31N 54°02' E 008°08'0 0.0
2014-Jul-18 12:31N 54°02' E 008°08'0 0.1
2014-Jul-18 11:31N 54°03' E 008°08'0 0.1
2014-Jul-18 10:31N 54°03' E 008°08'0 0.0
2014-Jul-18 09:31N 54°03' E 008°08'0 0.0
2014-Jul-18 08:31N 54°03' E 008°08'0 0.0
2014-Jul-18 07:31N 54°03' E 008°08'0 0.0
2014-Jul-18 06:31N 54°03' E 008°08'0 0.0
2014-Jul-18 05:34N 54°02' E 008°08'0 0.0
2014-Jul-18 04:31N 54°02' E 008°08'0 0.1
2014-Jul-18 03:33N 54°02' E 008°08'0 0.1
2014-Jul-18 02:34N 54°02' E 008°08'8 7.7
2014-Jul-18 01:33N 53°60' E 008°20'1110.7
2014-Jul-18 00:33N 53°57' E 008°38'1212.0
2014-Jul-17 23:34N 53°51' E 008°55'1313.1
2014-Jul-17 22:33N 53°52' E 009°17'1515.1
2014-Jul-17 21:33N 53°39' E 009°31'1313.0
2014-Jul-17 20:33N 53°33' E 009°50'5 5.3
2014-Jul-17 19:33N 53°30' E 009°58'0 0.0
2014-Jul-17 18:28N 53°30' E 009°58'0 0.0
2014-Jul-17 17:22N 53°30' E 009°58'0 0.0
2014-Jul-17 16:31N 53°30' E 009°58'0 0.0
2014-Jul-17 15:33N 53°30' E 009°58'0 0.0
2014-Jul-17 14:33N 53°30' E 009°58'0 0.0
2014-Jul-17 13:33N 53°30' E 009°58'0 0.0
2014-Jul-17 12:30N 53°30' E 009°58'0 0.0
2014-Jul-17 11:33N 53°30' E 009°58'0 0.0
2014-Jul-17 10:33N 53°30' E 009°58'0 0.0
2014-Jul-17 09:33N 53°30' E 009°58'0 0.0
2014-Jul-17 08:27N 53°30' E 009°58'0 0.0
2014-Jul-17 07:33N 53°30' E 009°58'0 0.0
2014-Jul-17 06:33N 53°30' E 009°58'0 0.4
2014-Jul-17 05:29N 53°31' E 009°57'0 0.0
2014-Jul-17 04:32N 53°31' E 009°57'0 0.0
2014-Jul-17 03:29N 53°31' E 009°57'0 0.0
2014-Jul-17 02:23N 53°31' E 009°57'0 0.0
2014-Jul-17 01:29N 53°31' E 009°57'0 0.0
2014-Jul-17 00:32N 53°31' E 009°57'0 0.0
2014-Jul-16 23:29N 53°31' E 009°57'0 0.0
2014-Jul-16 22:32N 53°31' E 009°57'0 0.0
2014-Jul-16 21:32N 53°31' E 009°57'0 0.0
2014-Jul-16 20:29N 53°31' E 009°57'0 0.0
2014-Jul-16 19:29N 53°31' E 009°57'0 0.0
2014-Jul-16 18:29N 53°31' E 009°57'0 0.0
2014-Jul-16 17:29N 53°31' E 009°57'0 0.1
2014-Jul-16 16:33N 53°31' E 009°57'7 6.6
2014-Jul-16 15:33N 53°33' E 009°47'9 9.5
2014-Jul-16 14:33N 53°37' E 009°33'1211.5
2014-Jul-16 13:33N 53°48' E 009°23'1212.1
2014-Jul-16 12:33N 53°52' E 009°04'1111.4
2014-Jul-16 11:33N 53°51' E 008°45'1212.3
2014-Jul-16 10:33N 53°59' E 008°28'1313.0
2014-Jul-16 09:33N 53°60' E 008°06'3 3.0
2014-Jul-16 08:31N 54°03' E 008°07'0 0.1
2014-Jul-16 07:31N 54°03' E 008°07'0 0.0
2014-Jul-16 06:28N 54°03' E 008°07'0 0.0
2014-Jul-16 05:31N 54°03' E 008°07'0 0.0
2014-Jul-16 04:31N 54°03' E 008°07'0 0.1
2014-Jul-16 03:31N 54°03' E 008°07'0 0.1
2014-Jul-16 02:31N 54°03' E 008°07'0 0.0
2014-Jul-16 01:31N 54°03' E 008°07'0 0.0
2014-Jul-16 00:31N 54°03' E 008°07'0 0.0
2014-Jul-15 23:31N 54°03' E 008°07'0 0.0
2014-Jul-15 22:28N 54°03' E 008°07'0 0.0
2014-Jul-15 21:31N 54°03' E 008°07'0 0.1
2014-Jul-15 20:31N 54°03' E 008°07'0 0.2
2014-Jul-15 19:31N 54°03' E 008°07'0 0.0
2014-Jul-15 18:31N 54°03' E 008°07'0 0.0
2014-Jul-15 17:31N 54°03' E 008°07'0 0.0
2014-Jul-15 16:31N 54°03' E 008°07'0 0.2
2014-Jul-15 15:31N 54°03' E 008°07'0 0.1
2014-Jul-15 14:31N 54°03' E 008°07'0 0.0
2014-Jul-15 13:22N 54°03' E 008°07'0 0.0
2014-Jul-15 12:31N 54°03' E 008°07'0 0.0
2014-Jul-15 11:28N 54°03' E 008°07'0 0.0
2014-Jul-15 10:31N 54°03' E 008°07'0 0.0
2014-Jul-15 09:28N 54°03' E 008°07'0 0.1
2014-Jul-15 08:31N 54°03' E 008°07'0 0.1
2014-Jul-15 07:31N 54°03' E 008°07'0 0.1
2014-Jul-15 06:31N 54°03' E 008°07'0 0.0
2014-Jul-15 05:31N 54°03' E 008°07'0 0.0
2014-Jul-15 04:31N 54°03' E 008°07'0 0.1
2014-Jul-15 03:28N 54°03' E 008°07'0 0.1
2014-Jul-15 02:31N 54°03' E 008°07'0 0.1
2014-Jul-15 01:28N 54°03' E 008°07'0 0.0
2014-Jul-15 00:28N 54°03' E 008°07'0 0.0
2014-Jul-14 23:34N 54°03' E 008°07'0 0.0
2014-Jul-14 22:34N 54°03' E 008°07'0 0.0
2014-Jul-14 21:33N 54°03' E 008°07'  
Track history (hours):
 
Tides and Currents Weather Stations Pressure Air Temp Water Temp Dewpoint Dewpoint Depression Visibility Wind Speed Wind Dir Waves Ship Positions

Favola

Last reported at 2014-Jul-24 21:08 UTC. Time now 2014-Jul-24 21:43 UTC.
Position N 39°48' W 009°43'.

Length 180 m; draft 9.4 m.

Type: Ship (hazmat cat A). MMSI: 247069800.

Date/timePositionNaut miles runAvg speedWind from/ knotsBaromVisibWave heightAir tempDewpointWater temp
2014-Jul-24 21:08N 39°48' W 009°43'  
2014-Jul-20 10:24N 50°18' W 001°14'1214.6
2014-Jul-20 09:33N 50°21' W 000°55'1514.9
2014-Jul-20 08:33N 50°25' W 000°33'1313.5
2014-Jul-20 07:33N 50°29' W 000°12'1212.4
2014-Jul-20 06:33N 50°32' E 000°07'1211.8
2014-Jul-20 05:33N 50°35' E 000°25'1111.0
2014-Jul-20 04:33N 50°40' E 000°40'1110.8
2014-Jul-20 03:33N 50°46' E 000°54'1111.1
2014-Jul-20 02:33N 50°53' E 001°08'1212.3
2014-Jul-20 01:34N 51°02' E 001°22'1413.7
2014-Jul-20 00:33N 51°10' E 001°40'1313.0
2014-Jul-19 23:34N 51°20' E 001°53'1212.3
2014-Jul-19 22:33N 51°30' E 002°04'1111.4
2014-Jul-19 21:34N 51°38' E 002°16'1010.0
2014-Jul-19 20:33N 51°46' E 002°26'1010.3
2014-Jul-19 19:33N 51°55' E 002°34'1010.3
2014-Jul-19 18:33N 52°05' E 002°38'1110.9
2014-Jul-19 17:33N 52°16' E 002°43'2512.1
2014-Jul-19 15:31N 52°38' E 003°00'1313.1
2014-Jul-19 14:33N 52°49' E 003°10'1313.2
2014-Jul-19 13:33N 53°02' E 003°18'1312.9
2014-Jul-19 12:31N 53°14' E 003°25'1212.3
2014-Jul-19 11:33N 53°25' E 003°31'1211.9
2014-Jul-19 10:32N 53°37' E 003°37'1111.2
2014-Jul-19 09:33N 53°46' E 003°47'1211.8
2014-Jul-19 08:33N 53°53' E 004°03'1212.0
2014-Jul-19 07:33N 54°01' E 004°19'1312.7
2014-Jul-19 06:33N 54°04' E 004°40'1312.9
2014-Jul-19 05:33N 54°05' E 005°02'1312.7
2014-Jul-19 04:33N 54°07' E 005°23'1212.3
2014-Jul-19 03:34N 54°09' E 005°44'1211.7
2014-Jul-19 02:33N 54°10' E 006°04'1111.2
2014-Jul-19 01:33N 54°12' E 006°23'1111.1
2014-Jul-19 00:33N 54°12' E 006°42'1111.3
2014-Jul-18 23:33N 54°12' E 007°01'1212.0
2014-Jul-18 22:33N 54°12' E 007°22'1212.2
2014-Jul-18 21:33N 54°09' E 007°42'1313.2
2014-Jul-18 20:33N 54°03' E 008°02'3 3.3
2014-Jul-18 19:31N 54°02' E 008°08'0 0.0
2014-Jul-18 18:31N 54°02' E 008°08'0 0.0
2014-Jul-18 17:31N 54°02' E 008°08'0 0.1
2014-Jul-18 16:31N 54°02' E 008°08'0 0.1
2014-Jul-18 15:31N 54°02' E 008°08'0 0.0
2014-Jul-18 14:31N 54°02' E 008°08'0 0.0
2014-Jul-18 13:31N 54°02' E 008°08'0 0.0
2014-Jul-18 12:31N 54°02' E 008°08'0 0.1
2014-Jul-18 11:31N 54°03' E 008°08'0 0.1
2014-Jul-18 10:31N 54°03' E 008°08'0 0.0
2014-Jul-18 09:31N 54°03' E 008°08'0 0.0
2014-Jul-18 08:31N 54°03' E 008°08'0 0.0
2014-Jul-18 07:31N 54°03' E 008°08'0 0.0
2014-Jul-18 06:31N 54°03' E 008°08'0 0.0
2014-Jul-18 05:34N 54°02' E 008°08'0 0.0
2014-Jul-18 04:31N 54°02' E 008°08'0 0.1
2014-Jul-18 03:33N 54°02' E 008°08'0 0.1
2014-Jul-18 02:34N 54°02' E 008°08'8 7.7
2014-Jul-18 01:33N 53°60' E 008°20'1110.7
2014-Jul-18 00:33N 53°57' E 008°38'1212.0
2014-Jul-17 23:34N 53°51' E 008°55'1313.1
2014-Jul-17 22:33N 53°52' E 009°17'1515.1
2014-Jul-17 21:33N 53°39' E 009°31'1313.0
2014-Jul-17 20:33N 53°33' E 009°50'5 5.3
2014-Jul-17 19:33N 53°30' E 009°58'0 0.0
2014-Jul-17 18:28N 53°30' E 009°58'0 0.0
2014-Jul-17 17:22N 53°30' E 009°58'0 0.0
2014-Jul-17 16:31N 53°30' E 009°58'0 0.0
2014-Jul-17 15:33N 53°30' E 009°58'0 0.0
2014-Jul-17 14:33N 53°30' E 009°58'0 0.0
2014-Jul-17 13:33N 53°30' E 009°58'0 0.0
2014-Jul-17 12:30N 53°30' E 009°58'0 0.0
2014-Jul-17 11:33N 53°30' E 009°58'0 0.0
2014-Jul-17 10:33N 53°30' E 009°58'0 0.0
2014-Jul-17 09:33N 53°30' E 009°58'0 0.0
2014-Jul-17 08:27N 53°30' E 009°58'0 0.0
2014-Jul-17 07:33N 53°30' E 009°58'0 0.0
2014-Jul-17 06:33N 53°30' E 009°58'0 0.4
2014-Jul-17 05:29N 53°31' E 009°57'0 0.0
2014-Jul-17 04:32N 53°31' E 009°57'0 0.0
2014-Jul-17 03:29N 53°31' E 009°57'0 0.0
2014-Jul-17 02:23N 53°31' E 009°57'0 0.0
2014-Jul-17 01:29N 53°31' E 009°57'0 0.0
2014-Jul-17 00:32N 53°31' E 009°57'0 0.0
2014-Jul-16 23:29N 53°31' E 009°57'0 0.0
2014-Jul-16 22:32N 53°31' E 009°57'0 0.0
2014-Jul-16 21:32N 53°31' E 009°57'0 0.0
2014-Jul-16 20:29N 53°31' E 009°57'0 0.0
2014-Jul-16 19:29N 53°31' E 009°57'0 0.0
2014-Jul-16 18:29N 53°31' E 009°57'0 0.0
2014-Jul-16 17:29N 53°31' E 009°57'0 0.1
2014-Jul-16 16:33N 53°31' E 009°57'7 6.6
2014-Jul-16 15:33N 53°33' E 009°47'9 9.5
2014-Jul-16 14:33N 53°37' E 009°33'1211.5
2014-Jul-16 13:33N 53°48' E 009°23'1212.1
2014-Jul-16 12:33N 53°52' E 009°04'1111.4
2014-Jul-16 11:33N 53°51' E 008°45'1212.3
2014-Jul-16 10:33N 53°59' E 008°28'1313.0
2014-Jul-16 09:33N 53°60' E 008°06'3 3.0
2014-Jul-16 08:31N 54°03' E 008°07'0 0.1
2014-Jul-16 07:31N 54°03' E 008°07'0 0.0
2014-Jul-16 06:28N 54°03' E 008°07'0 0.0
2014-Jul-16 05:31N 54°03' E 008°07'0 0.0
2014-Jul-16 04:31N 54°03' E 008°07'0 0.1
2014-Jul-16 03:31N 54°03' E 008°07'0 0.1
2014-Jul-16 02:31N 54°03' E 008°07'0 0.0
2014-Jul-16 01:31N 54°03' E 008°07'0 0.0
2014-Jul-16 00:31N 54°03' E 008°07'0 0.0
2014-Jul-15 23:31N 54°03' E 008°07'0 0.0
2014-Jul-15 22:28N 54°03' E 008°07'0 0.0
2014-Jul-15 21:31N 54°03' E 008°07'0 0.1
2014-Jul-15 20:31N 54°03' E 008°07'0 0.2
2014-Jul-15 19:31N 54°03' E 008°07'0 0.0
2014-Jul-15 18:31N 54°03' E 008°07'0 0.0
2014-Jul-15 17:31N 54°03' E 008°07'0 0.0
2014-Jul-15 16:31N 54°03' E 008°07'0 0.2
2014-Jul-15 15:31N 54°03' E 008°07'0 0.1
2014-Jul-15 14:31N 54°03' E 008°07'0 0.0
2014-Jul-15 13:22N 54°03' E 008°07'0 0.0
2014-Jul-15 12:31N 54°03' E 008°07'0 0.0
2014-Jul-15 11:28N 54°03' E 008°07'0 0.0
2014-Jul-15 10:31N 54°03' E 008°07'0 0.0
2014-Jul-15 09:28N 54°03' E 008°07'0 0.1
2014-Jul-15 08:31N 54°03' E 008°07'0 0.1
2014-Jul-15 07:31N 54°03' E 008°07'0 0.1
2014-Jul-15 06:31N 54°03' E 008°07'0 0.0
2014-Jul-15 05:31N 54°03' E 008°07'0 0.0
2014-Jul-15 04:31N 54°03' E 008°07'0 0.1
2014-Jul-15 03:28N 54°03' E 008°07'0 0.1
2014-Jul-15 02:31N 54°03' E 008°07'0 0.1
2014-Jul-15 01:28N 54°03' E 008°07'0 0.0
2014-Jul-15 00:28N 54°03' E 008°07'0 0.0
2014-Jul-14 23:34N 54°03' E 008°07'0 0.0
2014-Jul-14 22:34N 54°03' E 008°07'0 0.0
2014-Jul-14 21:33N 54°03' E 008°07'  

Dump ship's entire track history